sensor_id;sensor_type;location;lat;lon;timestamp;pressure;altitude;pressure_sealevel;temperature;humidity
45621;BME280;31345;51.522;10.702;2022-08-19T00:00:39;98653.28;;;19.46;100.00
45621;BME280;31345;51.522;10.702;2022-08-19T00:03:07;98658.41;;;19.48;100.00
45621;BME280;31345;51.522;10.702;2022-08-19T00:05:35;98659.06;;;19.66;100.00
45621;BME280;31345;51.522;10.702;2022-08-19T00:08:04;98664.03;;;19.70;100.00
45621;BME280;31345;51.522;10.702;2022-08-19T00:10:32;98664.06;;;19.61;100.00
45621;BME280;31345;51.522;10.702;2022-08-19T00:13:00;98657.75;;;19.54;100.00
45621;BME280;31345;51.522;10.702;2022-08-19T00:15:27;98654.94;;;19.64;100.00
45621;BME280;31345;51.522;10.702;2022-08-19T00:17:55;98652.91;;;19.58;100.00
45621;BME280;31345;51.522;10.702;2022-08-19T00:20:23;98641.16;;;19.60;100.00
45621;BME280;31345;51.522;10.702;2022-08-19T00:22:52;98650.13;;;19.51;100.00
45621;BME280;31345;51.522;10.702;2022-08-19T00:25:21;98657.59;;;19.47;100.00
45621;BME280;31345;51.522;10.702;2022-08-19T00:27:49;98657.94;;;19.44;100.00
45621;BME280;31345;51.522;10.702;2022-08-19T00:30:17;98654.09;;;19.63;100.00
45621;BME280;31345;51.522;10.702;2022-08-19T00:32:44;98649.66;;;19.47;100.00
45621;BME280;31345;51.522;10.702;2022-08-19T00:35:12;98649.13;;;19.68;100.00
45621;BME280;31345;51.522;10.702;2022-08-19T00:37:40;98659.56;;;19.45;100.00
45621;BME280;31345;51.522;10.702;2022-08-19T00:40:11;98650.25;;;19.58;100.00
45621;BME280;31345;51.522;10.702;2022-08-19T00:42:41;98655.28;;;19.44;100.00
45621;BME280;31345;51.522;10.702;2022-08-19T00:45:11;98654.41;;;19.52;100.00
45621;BME280;31345;51.522;10.702;2022-08-19T00:47:40;98651.97;;;19.59;100.00
45621;BME280;31345;51.522;10.702;2022-08-19T00:50:10;98647.59;;;19.58;100.00
45621;BME280;31345;51.522;10.702;2022-08-19T00:52:42;98641.81;;;19.71;100.00
45621;BME280;31345;51.522;10.702;2022-08-19T00:55:14;98646.31;;;19.62;100.00
45621;BME280;31345;51.522;10.702;2022-08-19T00:57:48;98645.13;;;19.56;100.00
45621;BME280;31345;51.522;10.702;2022-08-19T01:00:18;98641.00;;;19.62;100.00
45621;BME280;31345;51.522;10.702;2022-08-19T01:02:46;98635.84;;;19.68;100.00
45621;BME280;31345;51.522;10.702;2022-08-19T01:05:17;98630.69;;;19.75;100.00
45621;BME280;31345;51.522;10.702;2022-08-19T01:07:47;98629.22;;;19.73;100.00
45621;BME280;31345;51.522;10.702;2022-08-19T01:10:18;98631.47;;;19.84;100.00
45621;BME280;31345;51.522;10.702;2022-08-19T01:12:48;98621.81;;;19.91;100.00
45621;BME280;31345;51.522;10.702;2022-08-19T01:15:20;98615.91;;;19.81;100.00
45621;BME280;31345;51.522;10.702;2022-08-19T01:17:48;98618.91;;;19.78;100.00
45621;BME280;31345;51.522;10.702;2022-08-19T01:20:19;98614.44;;;19.70;100.00
45621;BME280;31345;51.522;10.702;2022-08-19T01:22:50;98619.59;;;19.72;100.00
45621;BME280;31345;51.522;10.702;2022-08-19T01:25:20;98618.78;;;19.71;100.00
45621;BME280;31345;51.522;10.702;2022-08-19T01:27:50;98609.13;;;19.70;100.00
45621;BME280;31345;51.522;10.702;2022-08-19T01:30:23;98609.63;;;19.74;100.00
45621;BME280;31345;51.522;10.702;2022-08-19T01:32:52;98607.16;;;19.72;100.00
45621;BME280;31345;51.522;10.702;2022-08-19T01:35:22;98604.50;;;19.72;100.00
45621;BME280;31345;51.522;10.702;2022-08-19T01:37:54;98608.19;;;19.63;100.00
45621;BME280;31345;51.522;10.702;2022-08-19T01:40:25;98609.34;;;19.60;100.00
45621;BME280;31345;51.522;10.702;2022-08-19T01:42:53;98607.00;;;19.74;100.00
45621;BME280;31345;51.522;10.702;2022-08-19T01:45:22;98609.63;;;19.74;100.00
45621;BME280;31345;51.522;10.702;2022-08-19T01:47:51;98603.06;;;19.61;100.00
45621;BME280;31345;51.522;10.702;2022-08-19T01:50:19;98608.84;;;19.57;100.00
45621;BME280;31345;51.522;10.702;2022-08-19T01:52:47;98604.81;;;19.77;100.00
45621;BME280;31345;51.522;10.702;2022-08-19T01:55:18;98607.03;;;19.65;100.00
45621;BME280;31345;51.522;10.702;2022-08-19T01:57:48;98604.72;;;19.62;100.00
45621;BME280;31345;51.522;10.702;2022-08-19T02:00:18;98606.53;;;19.53;100.00
45621;BME280;31345;51.522;10.702;2022-08-19T02:02:46;98602.09;;;19.46;100.00
45621;BME280;31345;51.522;10.702;2022-08-19T02:05:14;98600.88;;;19.57;100.00
45621;BME280;31345;51.522;10.702;2022-08-19T02:07:47;98600.59;;;19.60;100.00
45621;BME280;31345;51.522;10.702;2022-08-19T02:10:21;98594.56;;;19.66;100.00
45621;BME280;31345;51.522;10.702;2022-08-19T02:12:49;98606.50;;;19.70;100.00
45621;BME280;31345;51.522;10.702;2022-08-19T02:15:18;98602.91;;;19.63;100.00
45621;BME280;31345;51.522;10.702;2022-08-19T02:17:47;98605.34;;;19.56;100.00
45621;BME280;31345;51.522;10.702;2022-08-19T02:20:15;98596.91;;;19.61;100.00
45621;BME280;31345;51.522;10.702;2022-08-19T02:22:43;98608.03;;;19.48;100.00
45621;BME280;31345;51.522;10.702;2022-08-19T02:25:12;98603.41;;;19.50;100.00
45621;BME280;31345;51.522;10.702;2022-08-19T02:27:42;98609.75;;;19.40;100.00
45621;BME280;31345;51.522;10.702;2022-08-19T02:30:12;98604.03;;;19.52;100.00
45621;BME280;31345;51.522;10.702;2022-08-19T02:32:42;98612.03;;;19.43;100.00
45621;BME280;31345;51.522;10.702;2022-08-19T02:35:10;98610.34;;;19.59;100.00
45621;BME280;31345;51.522;10.702;2022-08-19T02:37:37;98599.75;;;19.59;100.00
45621;BME280;31345;51.522;10.702;2022-08-19T02:40:22;98594.75;;;19.56;100.00
45621;BME280;31345;51.522;10.702;2022-08-19T02:42:51;98586.66;;;19.49;100.00
45621;BME280;31345;51.522;10.702;2022-08-19T02:45:19;98603.88;;;19.62;100.00
45621;BME280;31345;51.522;10.702;2022-08-19T02:47:47;98597.75;;;19.53;100.00
45621;BME280;31345;51.522;10.702;2022-08-19T02:50:14;98597.28;;;19.41;100.00
45621;BME280;31345;51.522;10.702;2022-08-19T02:52:42;98590.50;;;19.38;100.00
45621;BME280;31345;51.522;10.702;2022-08-19T02:55:09;98590.06;;;19.26;100.00
45621;BME280;31345;51.522;10.702;2022-08-19T02:57:37;98583.44;;;19.31;100.00
45621;BME280;31345;51.522;10.702;2022-08-19T03:00:07;98581.88;;;19.45;100.00
45621;BME280;31345;51.522;10.702;2022-08-19T03:02:37;98574.28;;;19.41;100.00
45621;BME280;31345;51.522;10.702;2022-08-19T03:05:06;98573.56;;;19.48;100.00
45621;BME280;31345;51.522;10.702;2022-08-19T03:07:35;98574.44;;;19.40;100.00
45621;BME280;31345;51.522;10.702;2022-08-19T03:10:03;98575.59;;;19.46;100.00
45621;BME280;31345;51.522;10.702;2022-08-19T03:12:31;98582.03;;;19.51;100.00
45621;BME280;31345;51.522;10.702;2022-08-19T03:14:58;98594.09;;;19.54;100.00
45621;BME280;31345;51.522;10.702;2022-08-19T03:17:28;98600.94;;;19.40;100.00
45621;BME280;31345;51.522;10.702;2022-08-19T03:19:55;98602.13;;;19.37;100.00
45621;BME280;31345;51.522;10.702;2022-08-19T03:22:23;98604.56;;;19.47;100.00
45621;BME280;31345;51.522;10.702;2022-08-19T03:24:51;98600.28;;;19.38;100.00
45621;BME280;31345;51.522;10.702;2022-08-19T03:27:19;98604.56;;;19.47;100.00
45621;BME280;31345;51.522;10.702;2022-08-19T03:29:47;98611.72;;;19.38;100.00
45621;BME280;31345;51.522;10.702;2022-08-19T03:32:14;98618.19;;;19.36;100.00
45621;BME280;31345;51.522;10.702;2022-08-19T03:34:43;98622.47;;;19.45;100.00
45621;BME280;31345;51.522;10.702;2022-08-19T03:37:11;98624.81;;;19.40;100.00
45621;BME280;31345;51.522;10.702;2022-08-19T03:39:40;98628.78;;;19.44;100.00
45621;BME280;31345;51.522;10.702;2022-08-19T03:42:09;98629.63;;;19.36;100.00
45621;BME280;31345;51.522;10.702;2022-08-19T03:44:36;98630.47;;;19.20;100.00
45621;BME280;31345;51.522;10.702;2022-08-19T03:47:05;98634.59;;;19.23;100.00
45621;BME280;31345;51.522;10.702;2022-08-19T03:49:33;98627.00;;;19.20;100.00
45621;BME280;31345;51.522;10.702;2022-08-19T03:52:03;98639.25;;;19.29;100.00
45621;BME280;31345;51.522;10.702;2022-08-19T03:54:33;98639.91;;;19.23;100.00
45621;BME280;31345;51.522;10.702;2022-08-19T03:57:02;98644.22;;;19.15;100.00
45621;BME280;31345;51.522;10.702;2022-08-19T03:59:32;98635.63;;;19.22;100.00
45621;BME280;31345;51.522;10.702;2022-08-19T04:02:05;98630.94;;;19.40;100.00
45621;BME280;31345;51.522;10.702;2022-08-19T04:04:35;98628.47;;;19.31;100.00
45621;BME280;31345;51.522;10.702;2022-08-19T04:07:05;98624.81;;;19.40;100.00
45621;BME280;31345;51.522;10.702;2022-08-19T04:09:34;98614.56;;;19.28;100.00
45621;BME280;31345;51.522;10.702;2022-08-19T04:12:03;98625.66;;;19.24;100.00
45621;BME280;31345;51.522;10.702;2022-08-19T04:14:33;98631.09;;;19.39;100.00
45621;BME280;31345;51.522;10.702;2022-08-19T04:17:03;98627.63;;;19.38;100.00
45621;BME280;31345;51.522;10.702;2022-08-19T04:19:32;98624.00;;;19.31;100.00
45621;BME280;31345;51.522;10.702;2022-08-19T04:22:00;98625.31;;;19.27;100.00
45621;BME280;31345;51.522;10.702;2022-08-19T04:24:30;98618.69;;;19.31;100.00
45621;BME280;31345;51.522;10.702;2022-08-19T04:26:59;98624.13;;;19.38;100.00
45621;BME280;31345;51.522;10.702;2022-08-19T04:29:28;98622.16;;;19.40;100.00
45621;BME280;31345;51.522;10.702;2022-08-19T04:31:56;98629.63;;;19.28;100.00
45621;BME280;31345;51.522;10.702;2022-08-19T04:34:26;98621.22;;;19.16;100.00
45621;BME280;31345;51.522;10.702;2022-08-19T04:36:56;98625.66;;;19.24;100.00
45621;BME280;31345;51.522;10.702;2022-08-19T04:39:26;98621.03;;;19.26;100.00
45621;BME280;31345;51.522;10.702;2022-08-19T04:42:17;98619.03;;;19.28;100.00
45621;BME280;31345;51.522;10.702;2022-08-19T04:45:03;98607.16;;;19.07;100.00
45621;BME280;31345;51.522;10.702;2022-08-19T04:47:31;98616.75;;;19.16;100.00
45621;BME280;31345;51.522;10.702;2022-08-19T04:49:59;98620.72;;;19.21;100.00
45621;BME280;31345;51.522;10.702;2022-08-19T04:52:27;98615.91;;;19.24;100.00
45621;BME280;31345;51.522;10.702;2022-08-19T04:54:57;98633.63;;;19.07;100.00
45621;BME280;31345;51.522;10.702;2022-08-19T04:57:26;98629.00;;;19.17;100.00
45621;BME280;31345;51.522;10.702;2022-08-19T04:59:55;98627.34;;;19.25;100.00
45621;BME280;31345;51.522;10.702;2022-08-19T05:02:22;98633.94;;;19.29;100.00
45621;BME280;31345;51.522;10.702;2022-08-19T05:04:51;98629.63;;;19.20;100.00
45621;BME280;31345;51.522;10.702;2022-08-19T05:07:18;98637.59;;;19.11;100.00
45621;BME280;31345;51.522;10.702;2022-08-19T05:09:46;98637.97;;;19.08;100.00
45621;BME280;31345;51.522;10.702;2022-08-19T05:12:13;98637.28;;;19.06;100.00
45621;BME280;31345;51.522;10.702;2022-08-19T05:14:43;98648.72;;;19.07;100.00
45621;BME280;31345;51.522;10.702;2022-08-19T05:17:12;98649.88;;;19.12;100.00
45621;BME280;31345;51.522;10.702;2022-08-19T05:19:39;98650.84;;;19.11;100.00
45621;BME280;31345;51.522;10.702;2022-08-19T05:22:24;98649.53;;;19.15;100.00
45621;BME280;31345;51.522;10.702;2022-08-19T05:25:04;98647.84;;;19.31;100.00
45621;BME280;31345;51.522;10.702;2022-08-19T05:27:33;98644.03;;;19.25;100.00
45621;BME280;31345;51.522;10.702;2022-08-19T05:30:03;98632.97;;;19.22;100.00
45621;BME280;31345;51.522;10.702;2022-08-19T05:32:31;98634.47;;;19.16;100.00
45621;BME280;31345;51.522;10.702;2022-08-19T05:34:59;98638.59;;;19.19;100.00
45621;BME280;31345;51.522;10.702;2022-08-19T05:37:26;98636.44;;;19.22;100.00
45621;BME280;31345;51.522;10.702;2022-08-19T05:39:55;98644.91;;;19.17;100.00
45621;BME280;31345;51.522;10.702;2022-08-19T05:42:23;98647.84;;;19.31;100.00
45621;BME280;31345;51.522;10.702;2022-08-19T05:44:50;98652.13;;;19.32;100.00
45621;BME280;31345;51.522;10.702;2022-08-19T05:47:20;98661.94;;;19.32;100.00
45621;BME280;31345;51.522;10.702;2022-08-19T05:49:48;98658.47;;;19.23;100.00
45621;BME280;31345;51.522;10.702;2022-08-19T05:52:17;98662.78;;;19.15;100.00
45621;BME280;31345;51.522;10.702;2022-08-19T05:54:46;98661.06;;;19.39;100.00
45621;BME280;31345;51.522;10.702;2022-08-19T05:57:14;98671.19;;;19.36;100.00
45621;BME280;31345;51.522;10.702;2022-08-19T05:59:42;98674.03;;;19.34;100.00
45621;BME280;31345;51.522;10.702;2022-08-19T06:02:11;98677.16;;;19.38;100.00
45621;BME280;31345;51.522;10.702;2022-08-19T06:04:40;98677.97;;;19.38;100.00
45621;BME280;31345;51.522;10.702;2022-08-19T06:07:09;98675.84;;;19.25;100.00
45621;BME280;31345;51.522;10.702;2022-08-19T06:09:37;98672.03;;;19.28;100.00
45621;BME280;31345;51.522;10.702;2022-08-19T06:12:05;98680.81;;;19.20;100.00
45621;BME280;31345;51.522;10.702;2022-08-19T06:14:34;98676.66;;;19.34;100.00
45621;BME280;31345;51.522;10.702;2022-08-19T06:17:02;98678.16;;;19.28;100.00
45621;BME280;31345;51.522;10.702;2022-08-19T06:19:30;98685.63;;;19.33;100.00
45621;BME280;31345;51.522;10.702;2022-08-19T06:21:59;98683.13;;;19.40;100.00
45621;BME280;31345;51.522;10.702;2022-08-19T06:24:28;98695.72;;;19.29;100.00
45621;BME280;31345;51.522;10.702;2022-08-19T06:26:57;98686.78;;;19.31;100.00
45621;BME280;31345;51.522;10.702;2022-08-19T06:29:26;98696.38;;;19.40;100.00
45621;BME280;31345;51.522;10.702;2022-08-19T06:31:55;98700.34;;;19.36;100.00
45621;BME280;31345;51.522;10.702;2022-08-19T06:34:24;98702.69;;;19.39;100.00
45621;BME280;31345;51.522;10.702;2022-08-19T06:36:54;98705.97;;;19.41;100.00
45621;BME280;31345;51.522;10.702;2022-08-19T06:39:25;98701.00;;;19.29;100.00
45621;BME280;31345;51.522;10.702;2022-08-19T06:41:58;98708.28;;;19.52;100.00
45621;BME280;31345;51.522;10.702;2022-08-19T06:44:30;98710.94;;;19.44;100.00
45621;BME280;31345;51.522;10.702;2022-08-19T06:47:02;98721.41;;;19.37;100.00
45621;BME280;31345;51.522;10.702;2022-08-19T06:49:30;98719.91;;;19.43;100.00
45621;BME280;31345;51.522;10.702;2022-08-19T06:51:58;98723.53;;;19.50;100.00
45621;BME280;31345;51.522;10.702;2022-08-19T06:54:28;98720.88;;;19.42;100.00
45621;BME280;31345;51.522;10.702;2022-08-19T06:56:56;98719.38;;;19.48;100.00
45621;BME280;31345;51.522;10.702;2022-08-19T06:59:24;98730.84;;;19.40;100.00
45621;BME280;31345;51.522;10.702;2022-08-19T07:01:55;98728.00;;;19.50;100.00
45621;BME280;31345;51.522;10.702;2022-08-19T07:04:24;98725.69;;;19.47;100.00
45621;BME280;31345;51.522;10.702;2022-08-19T07:06:58;98731.16;;;19.45;100.00
45621;BME280;31345;51.522;10.702;2022-08-19T07:09:28;98742.09;;;19.42;100.00
45621;BME280;31345;51.522;10.702;2022-08-19T07:11:56;98738.47;;;19.43;100.00
45621;BME280;31345;51.522;10.702;2022-08-19T07:14:25;98739.09;;;19.45;100.00
45621;BME280;31345;51.522;10.702;2022-08-19T07:16:56;98749.88;;;19.52;100.00
45621;BME280;31345;51.522;10.702;2022-08-19T07:19:25;98744.56;;;19.43;100.00
45621;BME280;31345;51.522;10.702;2022-08-19T07:21:55;98739.63;;;19.40;100.00
45621;BME280;31345;51.522;10.702;2022-08-19T07:24:24;98737.94;;;19.48;100.00
45621;BME280;31345;51.522;10.702;2022-08-19T07:26:54;98737.78;;;19.49;100.00
45621;BME280;31345;51.522;10.702;2022-08-19T07:29:23;98733.16;;;19.51;99.19
45621;BME280;31345;51.522;10.702;2022-08-19T07:31:51;98749.69;;;19.53;99.42
45621;BME280;31345;51.522;10.702;2022-08-19T07:34:23;98753.53;;;19.51;99.26
45621;BME280;31345;51.522;10.702;2022-08-19T07:36:52;98760.81;;;19.49;99.03
45621;BME280;31345;51.522;10.702;2022-08-19T07:39:22;98760.81;;;19.49;98.53
45621;BME280;31345;51.522;10.702;2022-08-19T07:41:53;98764.63;;;19.38;98.91
45621;BME280;31345;51.522;10.702;2022-08-19T07:44:21;98764.47;;;19.39;98.96
45621;BME280;31345;51.522;10.702;2022-08-19T07:46:51;98759.31;;;19.29;98.96
45621;BME280;31345;51.522;10.702;2022-08-19T07:49:19;98761.16;;;19.37;99.14
45621;BME280;31345;51.522;10.702;2022-08-19T07:51:50;98754.38;;;19.35;98.47
45621;BME280;31345;51.522;10.702;2022-08-19T07:54:19;98753.69;;;19.41;97.28
45621;BME280;31345;51.522;10.702;2022-08-19T07:56:47;98771.75;;;19.37;97.40
45621;BME280;31345;51.522;10.702;2022-08-19T07:59:17;98777.38;;;19.42;97.38
45621;BME280;31345;51.522;10.702;2022-08-19T08:01:46;98765.94;;;19.34;98.60
45621;BME280;31345;51.522;10.702;2022-08-19T08:04:13;98766.47;;;19.37;98.35
45621;BME280;31345;51.522;10.702;2022-08-19T08:06:59;98773.41;;;19.30;99.11
45621;BME280;31345;51.522;10.702;2022-08-19T08:09:44;98771.78;;;19.29;99.06
45621;BME280;31345;51.522;10.702;2022-08-19T08:12:15;98769.94;;;19.29;99.51
45621;BME280;31345;51.522;10.702;2022-08-19T08:14:48;98765.47;;;19.38;98.85
45621;BME280;31345;51.522;10.702;2022-08-19T08:17:18;98771.91;;;19.44;97.88
45621;BME280;31345;51.522;10.702;2022-08-19T08:19:47;98779.19;;;19.42;96.99
45621;BME280;31345;51.522;10.702;2022-08-19T08:22:19;98775.72;;;19.50;95.54
45621;BME280;31345;51.522;10.702;2022-08-19T08:25:03;98781.53;;;19.45;96.54
45621;BME280;31345;51.522;10.702;2022-08-19T08:27:35;98779.22;;;19.50;95.67
45621;BME280;31345;51.522;10.702;2022-08-19T08:30:08;98778.38;;;19.41;96.95
45621;BME280;31345;51.522;10.702;2022-08-19T08:32:36;98780.72;;;19.45;96.33
45621;BME280;31345;51.522;10.702;2022-08-19T08:35:04;98793.13;;;19.44;97.26
45621;BME280;31345;51.522;10.702;2022-08-19T08:37:32;98794.13;;;19.51;95.88
45621;BME280;31345;51.522;10.702;2022-08-19T08:40:03;98795.28;;;19.49;94.94
45621;BME280;31345;51.522;10.702;2022-08-19T08:42:34;98802.25;;;19.50;95.71
45621;BME280;31345;51.522;10.702;2022-08-19T08:45:10;98800.75;;;19.55;96.56
45621;BME280;31345;51.522;10.702;2022-08-19T08:47:44;98804.22;;;19.56;95.25
45621;BME280;31345;51.522;10.702;2022-08-19T08:50:18;98806.09;;;19.64;95.87
45621;BME280;31345;51.522;10.702;2022-08-19T08:52:50;98812.03;;;19.66;95.64
45621;BME280;31345;51.522;10.702;2022-08-19T08:55:23;98815.19;;;19.70;95.17
45621;BME280;31345;51.522;10.702;2022-08-19T08:57:53;98810.91;;;19.68;95.33
45621;BME280;31345;51.522;10.702;2022-08-19T09:00:25;98815.84;;;19.72;95.85
45621;BME280;31345;51.522;10.702;2022-08-19T09:02:55;98822.13;;;19.79;94.52
45621;BME280;31345;51.522;10.702;2022-08-19T09:05:26;98818.13;;;19.91;93.49
45621;BME280;31345;51.522;10.702;2022-08-19T09:08:00;98815.34;;;19.85;93.76
45621;BME280;31345;51.522;10.702;2022-08-19T09:10:38;98825.78;;;19.86;93.60
45621;BME280;31345;51.522;10.702;2022-08-19T09:13:13;98827.25;;;19.97;91.95
45621;BME280;31345;51.522;10.702;2022-08-19T09:15:47;98828.25;;;19.96;92.77
45621;BME280;31345;51.522;10.702;2022-08-19T09:18:16;98832.88;;;19.94;93.90
45621;BME280;31345;51.522;10.702;2022-08-19T09:20:46;98832.88;;;19.94;93.41
45621;BME280;31345;51.522;10.702;2022-08-19T09:23:14;98838.38;;;19.92;91.40
45621;BME280;31345;51.522;10.702;2022-08-19T09:25:42;98830.72;;;20.06;93.10
45621;BME280;31345;51.522;10.702;2022-08-19T09:28:09;98827.56;;;20.11;93.17
45621;BME280;31345;51.522;10.702;2022-08-19T09:30:39;98827.72;;;20.17;92.98
45621;BME280;31345;51.522;10.702;2022-08-19T09:33:09;98831.50;;;20.23;91.74
45621;BME280;31345;51.522;10.702;2022-08-19T09:35:36;98828.13;;;20.38;90.82
45621;BME280;31345;51.522;10.702;2022-08-19T09:38:04;98827.94;;;20.48;91.00
45621;BME280;31345;51.522;10.702;2022-08-19T09:40:31;98829.56;;;20.65;88.25
45621;BME280;31345;51.522;10.702;2022-08-19T09:42:59;98830.22;;;20.67;88.31
45621;BME280;31345;51.522;10.702;2022-08-19T09:45:28;98837.16;;;20.77;86.96
45621;BME280;31345;51.522;10.702;2022-08-19T09:47:56;98834.34;;;20.70;87.70
45621;BME280;31345;51.522;10.702;2022-08-19T09:50:25;98839.41;;;20.88;85.19
45621;BME280;31345;51.522;10.702;2022-08-19T09:52:53;98829.56;;;20.97;86.23
45621;BME280;31345;51.522;10.702;2022-08-19T09:55:20;98834.28;;;20.87;86.70
45621;BME280;31345;51.522;10.702;2022-08-19T09:57:48;98834.28;;;20.87;86.14
45621;BME280;31345;51.522;10.702;2022-08-19T10:00:16;98838.47;;;20.81;84.07
45621;BME280;31345;51.522;10.702;2022-08-19T10:02:43;98839.84;;;21.00;86.58
45621;BME280;31345;51.522;10.702;2022-08-19T10:05:11;98833.47;;;21.09;84.69
45621;BME280;31345;51.522;10.702;2022-08-19T10:07:57;98821.50;;;21.37;84.30
45621;BME280;31345;51.522;10.702;2022-08-19T10:10:27;98815.09;;;21.46;83.37
45621;BME280;31345;51.522;10.702;2022-08-19T10:12:54;98807.47;;;21.43;82.67
45621;BME280;31345;51.522;10.702;2022-08-19T10:15:22;98810.78;;;21.69;82.66
45621;BME280;31345;51.522;10.702;2022-08-19T10:17:49;98801.97;;;21.68;82.34
45621;BME280;31345;51.522;10.702;2022-08-19T10:20:17;98801.69;;;21.40;81.20
45621;BME280;31345;51.522;10.702;2022-08-19T10:22:44;98809.28;;;21.51;80.96
45621;BME280;31345;51.522;10.702;2022-08-19T10:25:13;98810.97;;;21.67;81.70
45621;BME280;31345;51.522;10.702;2022-08-19T10:27:42;98788.56;;;21.61;80.61
45621;BME280;31345;51.522;10.702;2022-08-19T10:30:11;98787.09;;;21.59;80.09
45621;BME280;31345;51.522;10.702;2022-08-19T10:32:39;98792.59;;;21.72;80.93
45621;BME280;31345;51.522;10.702;2022-08-19T10:35:07;98787.56;;;21.63;79.33
45621;BME280;31345;51.522;10.702;2022-08-19T10:37:35;98790.69;;;21.81;78.16
45621;BME280;31345;51.522;10.702;2022-08-19T10:40:04;98781.34;;;21.85;76.33
45621;BME280;31345;51.522;10.702;2022-08-19T10:42:35;98784.84;;;21.71;77.34
45621;BME280;31345;51.522;10.702;2022-08-19T10:45:03;98790.97;;;21.71;79.10
45621;BME280;31345;51.522;10.702;2022-08-19T10:47:33;98786.03;;;21.83;78.95
45621;BME280;31345;51.522;10.702;2022-08-19T10:50:01;98786.88;;;21.99;79.42
45621;BME280;31345;51.522;10.702;2022-08-19T10:52:48;98785.88;;;22.00;79.10
45621;BME280;31345;51.522;10.702;2022-08-19T10:55:18;98783.28;;;22.07;77.16
45621;BME280;31345;51.522;10.702;2022-08-19T10:58:10;98774.09;;;22.24;75.97
45621;BME280;31345;51.522;10.702;2022-08-19T11:00:38;98781.00;;;22.19;76.42
45621;BME280;31345;51.522;10.702;2022-08-19T11:03:06;98767.13;;;22.23;74.56
45621;BME280;31345;51.522;10.702;2022-08-19T11:05:34;98764.09;;;22.42;75.77
45621;BME280;31345;51.522;10.702;2022-08-19T11:08:03;98756.38;;;22.47;74.54
45621;BME280;31345;51.522;10.702;2022-08-19T11:10:31;98758.31;;;22.38;73.74
45621;BME280;31345;51.522;10.702;2022-08-19T11:12:59;98749.56;;;22.44;72.42
45621;BME280;31345;51.522;10.702;2022-08-19T11:15:28;98754.00;;;22.37;71.44
45621;BME280;31345;51.522;10.702;2022-08-19T11:17:58;98745.91;;;23.04;72.34
45621;BME280;31345;51.522;10.702;2022-08-19T11:20:26;98741.69;;;23.17;69.50
45621;BME280;31345;51.522;10.702;2022-08-19T11:22:53;98735.28;;;23.11;69.65
45621;BME280;31345;51.522;10.702;2022-08-19T11:25:21;98741.84;;;23.30;68.41
45621;BME280;31345;51.522;10.702;2022-08-19T11:27:48;98739.13;;;23.52;67.44
45621;BME280;31345;51.522;10.702;2022-08-19T11:30:18;98740.31;;;23.78;66.86
45621;BME280;31345;51.522;10.702;2022-08-19T11:32:47;98739.75;;;23.83;66.41
45621;BME280;31345;51.522;10.702;2022-08-19T11:35:14;98741.16;;;23.78;64.59
45621;BME280;31345;51.522;10.702;2022-08-19T11:37:42;98726.81;;;23.86;64.16
45621;BME280;31345;51.522;10.702;2022-08-19T11:40:11;98730.28;;;23.80;64.73
45621;BME280;31345;51.522;10.702;2022-08-19T11:42:38;98720.03;;;24.26;61.13
45621;BME280;31345;51.522;10.702;2022-08-19T11:45:26;98720.88;;;24.26;61.52
45621;BME280;31345;51.522;10.702;2022-08-19T11:47:55;98730.50;;;24.14;64.07
45621;BME280;31345;51.522;10.702;2022-08-19T11:50:23;98741.06;;;24.00;63.35
45621;BME280;31345;51.522;10.702;2022-08-19T11:52:54;98741.16;;;24.07;63.87
45621;BME280;31345;51.522;10.702;2022-08-19T11:55:21;98741.94;;;23.72;64.97
45621;BME280;31345;51.522;10.702;2022-08-19T11:57:49;98741.56;;;23.82;64.03
45621;BME280;31345;51.522;10.702;2022-08-19T12:00:17;98739.94;;;23.81;64.30
45621;BME280;31345;51.522;10.702;2022-08-19T12:02:45;98744.25;;;23.82;63.66
45621;BME280;31345;51.522;10.702;2022-08-19T12:05:13;98732.13;;;24.15;62.31
45621;BME280;31345;51.522;10.702;2022-08-19T12:07:41;98733.97;;;24.14;62.52
45621;BME280;31345;51.522;10.702;2022-08-19T12:10:10;98730.72;;;24.19;64.35
45621;BME280;31345;51.522;10.702;2022-08-19T12:12:37;98721.22;;;24.10;62.29
45621;BME280;31345;51.522;10.702;2022-08-19T12:15:09;98726.56;;;24.10;63.74
45621;BME280;31345;51.522;10.702;2022-08-19T12:17:38;98729.56;;;24.42;64.02
45621;BME280;31345;51.522;10.702;2022-08-19T12:20:07;98730.44;;;24.56;58.65
45621;BME280;31345;51.522;10.702;2022-08-19T12:22:37;98725.00;;;24.36;61.31
45621;BME280;31345;51.522;10.702;2022-08-19T12:25:06;98732.63;;;24.32;62.12
45621;BME280;31345;51.522;10.702;2022-08-19T12:27:33;98730.69;;;24.12;61.51
45621;BME280;31345;51.522;10.702;2022-08-19T12:30:02;98725.59;;;24.24;60.63
45621;BME280;31345;51.522;10.702;2022-08-19T12:32:30;98719.31;;;24.52;60.19
45621;BME280;31345;51.522;10.702;2022-08-19T12:34:57;98729.50;;;24.98;59.59
45621;BME280;31345;51.522;10.702;2022-08-19T12:37:25;98728.91;;;25.09;58.65
45621;BME280;31345;51.522;10.702;2022-08-19T12:39:54;98726.41;;;25.41;61.14
45621;BME280;31345;51.522;10.702;2022-08-19T12:42:21;98717.16;;;25.44;59.13
45621;BME280;31345;51.522;10.702;2022-08-19T12:44:50;98709.94;;;25.65;57.52
45621;BME280;31345;51.522;10.702;2022-08-19T12:47:19;98711.16;;;25.82;55.49
45621;BME280;31345;51.522;10.702;2022-08-19T12:49:48;98701.28;;;25.56;57.16
45621;BME280;31345;51.522;10.702;2022-08-19T12:52:16;98711.38;;;25.74;57.97
45621;BME280;31345;51.522;10.702;2022-08-19T12:54:46;98704.06;;;26.02;56.75
45621;BME280;31345;51.522;10.702;2022-08-19T12:57:15;98702.88;;;25.91;54.95